Time;durP1;ratioP1;P1;durP2;ratioP2;P2;SDS_P1;SDS_P2;PMS_P1;PMS_P2;Temp;Humidity;BMP_temperature;BMP_pressure;BME280_temperature;BME280_humidity;BME280_pressure;Samples;Min_cycle;Max_cycle;Signal;HPM_P1;HPM_P2
2021/03/16 00:00:19;;;;;;;;;;;;;;;18.11;60.69;101570.13;5111629;28;1148;-64
2021/03/16 00:02:46;;;;;;;;;;;;;;;18.09;60.63;101567.53;5111227;28;1091;-65
2021/03/16 00:05:12;;;;;;;;;;;;;;;18.09;60.98;101571.97;5110706;28;1914;-64
2021/03/16 00:07:39;;;;;;;;;;;;;;;18.09;60.89;101571.97;5110710;28;1327;-64
2021/03/16 00:10:06;;;;;;;;;;;;;;;18.07;60.72;101572.03;5111415;28;1058;-64
2021/03/16 00:12:32;;;;;;;;;;;;;;;18.07;60.72;101568.53;5093124;28;1314;-64
2021/03/16 00:14:59;;;;;;;;;;;;;;;18.06;60.73;101566.78;5110784;28;1058;-64
2021/03/16 00:17:25;;;;;;;;;;;;;;;18.06;60.92;101567.66;5111435;28;1204;-65
2021/03/16 00:19:51;;;;;;;;;;;;;;;18.06;60.83;101567.66;5111408;28;1030;-64
2021/03/16 00:22:17;;;;;;;;;;;;;;;18.04;60.92;101566.88;5111123;28;1228;-64
2021/03/16 00:24:44;;;;;;;;;;;;;;;18.04;61.10;101574.78;5110953;28;1976;-64
2021/03/16 00:27:11;;;;;;;;;;;;;;;18.03;61.16;101576.56;5110859;28;1235;-64
2021/03/16 00:29:37;;;;;;;;;;;;;;;18.02;61.30;101576.63;5110933;28;1164;-65
2021/03/16 00:32:04;;;;;;;;;;;;;;;18.01;61.05;101581.03;5092222;28;1220;-64
2021/03/16 00:34:30;;;;;;;;;;;;;;;18.02;61.02;101582.75;5110697;28;1042;-64
2021/03/16 00:36:57;;;;;;;;;;;;;;;18.01;61.20;101575.78;5110561;28;1294;-65
2021/03/16 00:39:23;;;;;;;;;;;;;;;18.00;61.14;101574.06;5110440;28;1033;-65
2021/03/16 00:41:49;;;;;;;;;;;;;;;18.00;61.24;101570.53;5109886;28;1252;-64
2021/03/16 00:44:16;;;;;;;;;;;;;;;18.00;61.26;101581.09;5091980;28;1076;-65
2021/03/16 00:46:42;;;;;;;;;;;;;;;17.98;61.23;101577.66;5110504;28;1914;-64
2021/03/16 00:49:08;;;;;;;;;;;;;;;17.97;61.36;101590.00;5110390;28;1419;-64
2021/03/16 00:51:35;;;;;;;;;;;;;;;17.96;61.33;101585.63;5110652;28;1220;-65
2021/03/16 00:54:05;;;;;;;;;;;;;;;17.97;61.30;101587.34;5091819;28;1783;-65
2021/03/16 00:56:31;;;;;;;;;;;;;;;17.96;61.40;101577.72;5092252;28;1220;-65
2021/03/16 00:58:57;;;;;;;;;;;;;;;17.97;61.25;101587.34;5110283;28;1042;-65
2021/03/16 01:01:23;;;;;;;;;;;;;;;17.96;61.36;101590.06;5109892;28;1224;-64
2021/03/16 01:03:50;;;;;;;;;;;;;;;17.94;61.36;101582.19;5110164;28;1027;-65
2021/03/16 01:06:16;;;;;;;;;;;;;;;17.94;61.38;101587.47;5109732;28;2231;-64
2021/03/16 01:08:42;;;;;;;;;;;;;;;17.93;61.36;101588.38;5108814;28;1439;-65
2021/03/16 01:11:09;;;;;;;;;;;;;;;17.92;61.47;101578.78;5091762;28;1225;-65
2021/03/16 01:13:35;;;;;;;;;;;;;;;17.93;61.59;101584.91;5109954;28;1053;-64
2021/03/16 01:16:01;;;;;;;;;;;;;;;17.92;61.63;101576.16;5091206;28;1180;-64
2021/03/16 01:18:27;;;;;;;;;;;;;;;17.92;61.65;101576.16;5091235;28;1224;-65
2021/03/16 01:20:54;;;;;;;;;;;;;;;17.92;61.61;101581.41;5074809;28;1244;-65
2021/03/16 01:23:21;;;;;;;;;;;;;;;17.91;61.62;101579.69;5109807;28;1128;-64
2021/03/16 01:26:02;;;;;;;;;;;;;;;17.91;61.72;101584.97;5109603;28;1984;-65
2021/03/16 01:28:28;;;;;;;;;;;;;;;17.91;61.67;101582.31;5109233;28;1066;-65
2021/03/16 01:30:56;;;;;;;;;;;;;;;17.89;61.91;101586.81;5109460;28;1223;-65
2021/03/16 01:33:24;;;;;;;;;;;;;;;17.89;61.81;101584.19;5109438;28;1159;-65
2021/03/16 01:35:50;;;;;;;;;;;;;;;17.88;61.79;101585.09;5091219;28;1239;-65
2021/03/16 01:38:16;;;;;;;;;;;;;;;17.87;61.85;101578.09;5109393;28;1144;-64
2021/03/16 01:40:43;;;;;;;;;;;;;;;17.88;61.76;101584.22;5091022;28;1261;-65
2021/03/16 01:43:14;;;;;;;;;;;;;;;17.87;61.75;101577.25;5109775;28;1110;-64
2021/03/16 01:45:41;;;;;;;;;;;;;;;17.87;61.91;101580.72;5109547;28;1980;-64
2021/03/16 01:48:08;;;;;;;;;;;;;;;17.88;61.87;101573.69;5109441;28;868;-64
2021/03/16 01:50:35;;;;;;;;;;;;;;;17.86;61.92;101575.53;5109245;28;1448;-64
2021/03/16 01:53:02;;;;;;;;;;;;;;;17.85;61.92;101582.56;5109155;28;1058;-64
2021/03/16 01:55:29;;;;;;;;;;;;;;;17.86;61.99;101578.16;5109217;28;1283;-65
2021/03/16 01:57:56;;;;;;;;;;;;;;;17.86;61.85;101586.06;5090713;28;1506;-65
2021/03/16 02:00:24;;;;;;;;;;;;;;;17.84;61.89;101569.47;5109294;28;1299;-64
2021/03/16 02:02:50;;;;;;;;;;;;;;;17.84;62.01;101577.38;5074339;28;950;-64
2021/03/16 02:05:16;;;;;;;;;;;;;;;17.83;61.92;101573.88;5109148;28;1984;-63
2021/03/16 02:07:52;;;;;;;;;;;;;;;17.84;61.92;101587.94;5109378;28;805;-64
2021/03/16 02:10:25;;;;;;;;;;;;;;;17.82;61.97;101581.84;5109532;28;1251;-64
2021/03/16 02:12:58;;;;;;;;;;;;;;;17.82;61.68;101582.69;5109154;28;1094;-64
2021/03/16 02:15:28;;;;;;;;;;;;;;;17.82;61.71;101569.53;5109018;28;1344;-63
2021/03/16 02:17:55;;;;;;;;;;;;;;;17.82;61.56;101574.78;5109462;28;885;-64
2021/03/16 02:20:34;;;;;;;;;;;;;;;17.82;61.67;101580.06;5109612;28;1322;-64
2021/03/16 02:23:02;;;;;;;;;;;;;;;17.81;61.87;101572.22;5109295;28;756;-64
2021/03/16 02:25:49;;;;;;;;;;;;;;;17.80;61.74;101575.78;5109531;28;1977;-65
2021/03/16 02:28:18;;;;;;;;;;;;;;;17.79;61.75;101574.06;5109210;28;1080;-64
2021/03/16 02:30:45;;;;;;;;;;;;;;;17.79;62.01;101581.97;5108875;28;1303;-64
2021/03/16 02:33:17;;;;;;;;;;;;;;;17.77;61.83;101573.25;5109284;28;907;-64
2021/03/16 02:35:45;;;;;;;;;;;;;;;17.79;61.80;101574.91;5109212;28;1291;-65
2021/03/16 02:38:12;;;;;;;;;;;;;;;17.77;61.89;101574.13;5109071;28;856;-65
2021/03/16 02:40:38;;;;;;;;;;;;;;;17.77;61.74;101571.50;5109121;28;1234;-64
2021/03/16 02:43:05;;;;;;;;;;;;;;;17.77;61.79;101570.63;5109189;28;864;-64
2021/03/16 02:45:32;;;;;;;;;;;;;;;17.77;61.68;101576.75;5108503;28;1982;-65
2021/03/16 02:47:59;;;;;;;;;;;;;;;17.77;61.84;101571.50;5108969;28;960;-64
2021/03/16 02:50:26;;;;;;;;;;;;;;;17.74;61.97;101566.34;5108725;28;1444;-65
2021/03/16 02:52:54;;;;;;;;;;;;;;;17.75;61.89;101570.69;5108825;28;782;-65
2021/03/16 02:55:22;;;;;;;;;;;;;;;17.74;62.01;101571.63;5108992;28;1655;-64
2021/03/16 02:57:49;;;;;;;;;;;;;;;17.75;61.99;101573.31;5090171;28;1340;-65
2021/03/16 03:00:16;;;;;;;;;;;;;;;17.75;61.87;101568.03;5108863;28;1161;-65
2021/03/16 03:02:44;;;;;;;;;;;;;;;17.74;61.98;101560.22;5108712;28;1259;-64
2021/03/16 03:05:10;;;;;;;;;;;;;;;17.73;61.95;101561.13;5111871;28;1913;-64
2021/03/16 03:07:39;;;;;;;;;;;;;;;17.73;61.96;101567.25;5112422;28;1275;-65
2021/03/16 03:10:05;;;;;;;;;;;;;;;17.73;61.97;101566.38;5112551;28;914;-65
2021/03/16 03:12:32;;;;;;;;;;;;;;;17.72;62.06;101557.63;5112456;28;1254;-65
2021/03/16 03:14:58;;;;;;;;;;;;;;;17.72;62.13;101560.25;5112462;28;1051;-65
2021/03/16 03:17:24;;;;;;;;;;;;;;;17.72;62.14;101554.16;5112254;28;1247;-65
2021/03/16 03:19:51;;;;;;;;;;;;;;;17.71;62.03;101555.94;5111652;28;1209;-64
2021/03/16 03:22:29;;;;;;;;;;;;;;;17.72;62.09;101559.44;5111966;28;1220;-63
2021/03/16 03:25:28;;;;;;;;;;;;;;;17.69;62.00;101560.38;5111788;28;1909;-64
2021/03/16 03:28:00;;;;;;;;;;;;;;;17.69;61.70;101557.75;5111909;28;796;-65
2021/03/16 03:30:27;;;;;;;;;;;;;;;17.68;61.74;101561.31;5112194;28;1303;-65
2021/03/16 03:32:57;;;;;;;;;;;;;;;17.68;61.58;101561.31;5111880;28;826;-64
2021/03/16 03:35:24;;;;;;;;;;;;;;;17.66;61.28;101552.59;5112242;28;1317;-64
2021/03/16 03:37:51;;;;;;;;;;;;;;;17.67;61.48;101559.59;5111708;28;802;-65
2021/03/16 03:40:19;;;;;;;;;;;;;;;17.68;61.49;101563.94;5112142;28;1308;-64
2021/03/16 03:42:48;;;;;;;;;;;;;;;17.67;61.17;101564.00;5094054;28;984;-66
2021/03/16 03:45:14;;;;;;;;;;;;;;;17.64;61.17;101559.72;5112154;28;1980;-65
2021/03/16 03:47:44;;;;;;;;;;;;;;;17.65;61.08;101566.72;5111662;28;1222;-65
2021/03/16 03:50:12;;;;;;;;;;;;;;;17.64;61.42;101564.13;5111620;28;1541;-64
2021/03/16 03:52:40;;;;;;;;;;;;;;;17.64;61.03;101564.13;5111744;28;1228;-65
2021/03/16 03:55:06;;;;;;;;;;;;;;;17.63;61.14;101552.72;5111666;28;1033;-64
2021/03/16 03:57:51;;;;;;;;;;;;;;;17.64;61.18;101567.63;5110962;28;785;-65
2021/03/16 04:00:18;;;;;;;;;;;;;;;17.63;61.12;101563.25;5111234;28;1198;-65
2021/03/16 04:02:44;;;;;;;;;;;;;;;17.63;61.19;101563.25;5092152;28;1383;-63
2021/03/16 04:05:12;;;;;;;;;;;;;;;17.64;61.13;101564.13;5092700;28;1909;-65
2021/03/16 04:07:38;;;;;;;;;;;;;;;17.62;61.28;101566.84;5111193;28;1220;-68
2021/03/16 04:10:05;;;;;;;;;;;;;;;17.62;61.27;101564.19;5111375;28;1090;-65
2021/03/16 04:12:32;;;;;;;;;;;;;;;17.61;61.11;101562.47;5111354;28;1295;-63
2021/03/16 04:15:00;;;;;;;;;;;;;;;17.62;61.11;101566.84;5111191;28;1098;-65
2021/03/16 04:17:26;;;;;;;;;;;;;;;17.55;60.93;101552.19;5111372;28;1263;-65
2021/03/16 04:19:54;;;;;;;;;;;;;;;17.61;60.83;101570.38;5111330;28;904;-65
2021/03/16 04:22:21;;;;;;;;;;;;;;;17.61;60.77;101567.75;5110833;28;1322;-64
2021/03/16 04:24:49;;;;;;;;;;;;;;;17.61;60.88;101569.50;5111147;28;1976;-64
2021/03/16 04:27:15;;;;;;;;;;;;;;;17.61;60.85;101572.16;5110902;28;1248;-64
2021/03/16 04:29:41;;;;;;;;;;;;;;;17.60;60.63;101573.91;5092584;28;1407;-65
2021/03/16 04:32:07;;;;;;;;;;;;;;;17.59;60.84;101574.84;5092624;28;1353;-64
2021/03/16 04:34:33;;;;;;;;;;;;;;;17.59;60.66;101582.75;5110707;28;1046;-64
2021/03/16 04:37:00;;;;;;;;;;;;;;;17.59;60.56;101587.16;5110531;28;1322;-64
2021/03/16 04:39:28;;;;;;;;;;;;;;;17.58;60.69;101591.56;5110654;28;931;-64
2021/03/16 04:41:54;;;;;;;;;;;;;;;17.58;60.55;101585.44;5110644;28;1223;-64
2021/03/16 04:44:21;;;;;;;;;;;;;;;17.58;60.36;101590.72;5110678;28;1151;-64
2021/03/16 04:46:47;;;;;;;;;;;;;;;17.57;60.60;101596.91;5110229;28;1984;-65
2021/03/16 04:49:13;;;;;;;;;;;;;;;17.57;60.38;101602.19;5110273;28;1441;-66
2021/03/16 04:51:40;;;;;;;;;;;;;;;17.56;60.34;101601.31;5110715;28;1257;-65
2021/03/16 04:54:06;;;;;;;;;;;;;;;17.57;60.49;101599.53;5110557;28;1042;-65
2021/03/16 04:56:33;;;;;;;;;;;;;;;17.56;60.31;101608.34;5110340;28;1257;-65
2021/03/16 04:58:59;;;;;;;;;;;;;;;17.55;60.38;101607.50;5110546;28;1067;-64
2021/03/16 05:01:25;;;;;;;;;;;;;;;17.55;60.23;101607.50;5110363;28;1245;-65
2021/03/16 05:03:52;;;;;;;;;;;;;;;17.56;60.37;101608.34;5110040;28;1007;-66
2021/03/16 05:06:18;;;;;;;;;;;;;;;17.56;60.45;101606.59;5109718;28;1909;-65
2021/03/16 05:08:44;;;;;;;;;;;;;;;17.56;60.39;101608.34;5109727;28;1482;-65
2021/03/16 05:11:10;;;;;;;;;;;;;;;17.54;60.35;101611.00;5110009;28;1315;-65
2021/03/16 05:13:37;;;;;;;;;;;;;;;17.54;60.19;101611.00;5110181;28;1062;-65
2021/03/16 05:16:03;;;;;;;;;;;;;;;17.54;60.22;101611.00;5109794;28;1248;-65
2021/03/16 05:18:30;;;;;;;;;;;;;;;17.53;60.23;101611.94;5109611;28;1272;-64
2021/03/16 05:20:57;;;;;;;;;;;;;;;17.54;60.33;101616.28;5109792;28;1307;-64
2021/03/16 05:23:23;;;;;;;;;;;;;;;17.53;60.29;101609.31;5109901;28;1121;-65
2021/03/16 05:25:49;;;;;;;;;;;;;;;17.54;60.24;101605.72;5108306;28;1970;-64
2021/03/16 05:28:16;;;;;;;;;;;;;;;17.51;60.15;101612.94;5109049;28;1063;-64
2021/03/16 05:30:42;;;;;;;;;;;;;;;17.52;60.24;101610.22;5109370;28;1275;-65
2021/03/16 05:33:09;;;;;;;;;;;;;;;17.50;60.26;101604.16;5109568;28;806;-65
2021/03/16 05:35:35;;;;;;;;;;;;;;;17.53;60.21;101608.44;5091236;28;1455;-64
2021/03/16 05:38:02;;;;;;;;;;;;;;;17.50;60.00;101614.69;5109761;28;799;-63
2021/03/16 05:40:30;;;;;;;;;;;;;;;17.50;60.05;101614.69;5109448;28;1492;-63
2021/03/16 05:42:57;;;;;;;;;;;;;;;17.49;60.34;101608.56;5109725;28;863;-64
2021/03/16 05:45:23;;;;;;;;;;;;;;;17.51;60.08;101610.28;5109710;28;1906;-65
2021/03/16 05:47:51;;;;;;;;;;;;;;;17.49;60.09;101613.81;5090742;28;958;-65
2021/03/16 05:50:18;;;;;;;;;;;;;;;17.49;60.01;101619.09;5109435;28;1618;-66
2021/03/16 05:52:45;;;;;;;;;;;;;;;17.48;59.98;101616.50;5109729;28;1342;-65
2021/03/16 05:55:13;;;;;;;;;;;;;;;17.47;59.81;101618.31;5109446;28;903;-66
2021/03/16 05:57:39;;;;;;;;;;;;;;;17.47;59.82;101623.56;5109192;28;1326;-65
2021/03/16 06:00:07;;;;;;;;;;;;;;;17.47;60.01;101622.72;5109240;28;1050;-66
2021/03/16 06:02:37;;;;;;;;;;;;;;;17.46;59.86;101626.25;5109071;28;1326;-65
2021/03/16 06:05:04;;;;;;;;;;;;;;;17.45;59.96;101625.38;5109198;28;1976;-66
2021/03/16 06:07:30;;;;;;;;;;;;;;;17.46;60.03;101628.88;5108751;28;1220;-66
2021/03/16 06:09:59;;;;;;;;;;;;;;;17.47;59.86;101627.97;5109259;28;1141;-66
2021/03/16 06:12:32;;;;;;;;;;;;;;;17.45;59.89;101633.28;5108364;28;1220;-67
2021/03/16 06:15:18;;;;;;;;;;;;;;;17.45;59.95;101629.78;5109371;28;1449;-66
2021/03/16 06:17:51;;;;;;;;;;;;;;;17.44;59.89;101636.00;5109208;28;1244;-65
2021/03/16 06:20:28;;;;;;;;;;;;;;;17.48;60.94;101637.56;5109509;28;1169;-65
2021/03/16 06:23:04;;;;;;;;;;;;;;;17.59;60.90;101639.84;5108939;28;818;-65
2021/03/16 06:25:33;;;;;;;;;;;;;;;17.59;59.58;101637.22;5084533;28;1909;-62
2021/03/16 06:28:09;;;;;;;;;;;;;;;17.52;59.70;101643.59;5068000;28;857;-62
2021/03/16 06:30:36;;;;;;;;;;;;;;;17.54;60.37;101636.50;5067705;28;1268;-62
2021/03/16 06:33:03;;;;;;;;;;;;;;;17.51;59.83;101637.47;5067860;28;1083;-65
2021/03/16 06:35:30;;;;;;;;;;;;;;;17.51;59.83;101647.16;5067404;28;1380;-63
2021/03/16 06:38:03;;;;;;;;;;;;;;;17.51;59.96;101648.00;5067360;28;813;-63
2021/03/16 06:40:30;;;;;;;;;;;;;;;17.48;59.98;101653.38;5071199;28;1374;-63
2021/03/16 06:43:03;;;;;;;;;;;;;;;17.52;60.45;101657.63;5053037;28;1361;-64
2021/03/16 06:45:31;;;;;;;;;;;;;;;17.54;60.32;101654.97;5053147;28;1910;-63
2021/03/16 06:47:57;;;;;;;;;;;;;;;17.51;60.13;101665.59;5072176;28;1447;-61
2021/03/16 06:50:27;;;;;;;;;;;;;;;17.48;60.13;101666.56;5097403;28;1599;-63
2021/03/16 06:52:54;;;;;;;;;;;;;;;17.47;60.14;101671.00;5091504;28;1123;-62
2021/03/16 06:55:20;;;;;;;;;;;;;;;17.46;60.10;101671.91;5091693;28;1226;-62
2021/03/16 06:57:46;;;;;;;;;;;;;;;17.51;60.18;101668.25;5091721;28;913;-62
2021/03/16 07:00:13;;;;;;;;;;;;;;;17.60;60.87;101671.41;5075856;28;1602;-64
2021/03/16 07:02:43;;;;;;;;;;;;;;;17.53;59.54;101683.06;5092168;28;1422;-65
2021/03/16 07:05:10;;;;;;;;;;;;;;;17.56;59.98;101683.00;5092009;28;1929;-64
2021/03/16 07:07:37;;;;;;;;;;;;;;;17.52;60.12;101677.84;5091335;28;1307;-64
2021/03/16 07:10:05;;;;;;;;;;;;;;;17.51;60.10;101691.94;5092123;28;1056;-64
2021/03/16 07:12:35;;;;;;;;;;;;;;;17.49;60.19;101702.53;5091933;28;1189;-64
2021/03/16 07:15:03;;;;;;;;;;;;;;;17.49;60.17;101697.25;5073366;28;1202;-64
2021/03/16 07:17:31;;;;;;;;;;;;;;;17.47;60.13;101705.22;5090887;28;1208;-64
2021/03/16 07:20:05;;;;;;;;;;;;;;;17.51;60.35;101713.84;5091465;28;1146;-64
2021/03/16 07:22:37;;;;;;;;;;;;;;;17.50;60.29;101714.78;5091697;28;1231;-64
2021/03/16 07:25:08;;;;;;;;;;;;;;;17.49;60.24;101713.94;5073092;28;1975;-64
2021/03/16 07:27:34;;;;;;;;;;;;;;;17.53;60.51;101713.81;5091493;28;1425;-64
2021/03/16 07:30:00;;;;;;;;;;;;;;;17.56;60.35;101714.59;5073201;28;1143;-65
2021/03/16 07:32:27;;;;;;;;;;;;;;;17.61;60.60;101712.66;5073098;28;1533;-63
2021/03/16 07:34:54;;;;;;;;;;;;;;;17.57;60.10;101716.31;5110894;28;1220;-65
2021/03/16 07:37:21;;;;;;;;;;;;;;;17.55;59.67;101726.03;5114194;27;1262;-63
2021/03/16 07:39:47;;;;;;;;;;;;;;;17.57;59.95;101724.19;5113584;27;1744;-62
2021/03/16 07:42:14;;;;;;;;;;;;;;;17.73;61.48;101728.00;5131590;27;1347;-64
2021/03/16 07:44:41;;;;;;;;;;;;;;;17.78;61.08;101728.69;5116709;27;1579;-65
2021/03/16 07:47:07;;;;;;;;;;;;;;;17.80;61.52;101729.50;5111741;27;1913;-64
2021/03/16 07:49:39;;;;;;;;;;;;;;;17.80;61.28;101721.59;5131426;27;1603;-62
2021/03/16 07:52:18;;;;;;;;;;;;;;;17.90;61.51;101725.56;5112912;27;1251;-64
2021/03/16 07:54:46;;;;;;;;;;;;;;;18.02;61.13;101730.38;5112546;27;1677;-65
2021/03/16 07:57:13;;;;;;;;;;;;;;;17.92;60.75;101734.31;5129063;27;1211;-64
2021/03/16 07:59:39;;;;;;;;;;;;;;;17.89;61.14;101731.78;5107430;28;1841;-64
2021/03/16 08:02:05;;;;;;;;;;;;;;;17.86;60.37;101739.81;5101168;27;1748;-64
2021/03/16 08:04:41;;;;;;;;;;;;;;;17.82;59.48;101732.06;5120165;27;1684;-64
2021/03/16 08:07:12;;;;;;;;;;;;;;;17.80;59.55;101736.53;5110351;27;1975;-64
2021/03/16 08:09:45;;;;;;;;;;;;;;;17.79;59.78;101738.31;5112896;27;1698;-63
2021/03/16 08:12:23;;;;;;;;;;;;;;;17.89;60.58;101747.59;5111522;27;1315;-62
2021/03/16 08:14:49;;;;;;;;;;;;;;;17.86;60.15;101742.44;5130158;27;1082;-64
2021/03/16 08:17:29;;;;;;;;;;;;;;;17.86;60.51;101749.50;5123554;27;1718;-63
2021/03/16 08:19:56;;;;;;;;;;;;;;;17.84;58.93;101749.53;5111484;27;968;-64
2021/03/16 08:22:23;;;;;;;;;;;;;;;17.84;58.56;101752.16;5110346;27;1271;-65
2021/03/16 08:24:59;;;;;;;;;;;;;;;17.91;60.04;101758.06;5111600;27;1479;-64
2021/03/16 08:27:26;;;;;;;;;;;;;;;17.88;60.03;101772.22;5129732;27;1926;-63
2021/03/16 08:29:52;;;;;;;;;;;;;;;17.86;60.31;101766.16;5130338;27;1029;-63
2021/03/16 08:32:20;;;;;;;;;;;;;;;17.87;60.14;101767.03;5129084;27;1318;-63
2021/03/16 08:34:47;;;;;;;;;;;;;;;17.88;60.28;101769.59;5116480;27;1727;-64
2021/03/16 08:37:39;;;;;;;;;;;;;;;17.89;59.33;101773.09;5111745;27;1281;-63
2021/03/16 08:40:22;;;;;;;;;;;;;;;17.89;59.50;101779.22;5129652;27;1180;-64
2021/03/16 08:42:48;;;;;;;;;;;;;;;17.90;60.01;101773.03;5128931;27;1121;-64
2021/03/16 08:45:14;;;;;;;;;;;;;;;17.91;60.14;101771.25;5110386;27;1975;-64
2021/03/16 08:47:41;;;;;;;;;;;;;;;17.91;60.54;101777.38;5129378;27;1328;-63
2021/03/16 08:50:08;;;;;;;;;;;;;;;17.91;60.83;101780.03;5129104;27;1438;-63
2021/03/16 08:52:34;;;;;;;;;;;;;;;17.92;60.07;101787.03;5128938;27;1231;-63
2021/03/16 08:55:02;;;;;;;;;;;;;;;17.92;59.35;101792.31;5110605;27;1408;-63
2021/03/16 08:57:30;;;;;;;;;;;;;;;17.95;59.33;101788.69;5129119;27;1215;-63
2021/03/16 09:00:00;;;;;;;;;;;;;;;18.03;62.17;101795.38;5128536;27;1250;-62
2021/03/16 09:02:28;;;;;;;;;;;;;;;18.03;63.89;101798.03;5109087;27;1303;-63
2021/03/16 09:04:58;;;;;;;;;;;;;;;17.99;62.62;101796.41;5129207;27;1312;-63
2021/03/16 09:07:25;;;;;;;;;;;;;;;17.97;60.31;101800.03;5109369;27;1910;-63
2021/03/16 09:10:02;;;;;;;;;;;;;;;17.97;59.85;101800.03;5105567;28;964;-63
2021/03/16 09:12:29;;;;;;;;;;;;;;;17.99;60.09;101806.94;5108684;27;1415;-63
2021/03/16 09:15:09;;;;;;;;;;;;;;;17.99;62.70;101803.47;5110536;27;1098;-63
2021/03/16 09:17:36;;;;;;;;;;;;;;;17.98;62.29;101802.63;5109092;27;1208;-63
2021/03/16 09:20:07;;;;;;;;;;;;;;;18.07;62.12;101811.09;5108153;28;1166;-63
2021/03/16 09:22:34;;;;;;;;;;;;;;;18.06;61.30;101812.00;5109428;27;1239;-63
2021/03/16 09:25:00;;;;;;;;;;;;;;;18.03;60.66;101807.69;5110122;27;1234;-62
2021/03/16 09:27:26;;;;;;;;;;;;;;;18.02;60.86;101812.09;5128546;27;1980;-64
2021/03/16 09:29:53;;;;;;;;;;;;;;;18.05;60.72;101815.56;5128984;27;1106;-63
2021/03/16 09:32:20;;;;;;;;;;;;;;;18.04;60.29;101809.44;5123037;27;1284;-63
2021/03/16 09:34:46;;;;;;;;;;;;;;;18.05;60.03;101810.31;5128096;27;1138;-63
2021/03/16 09:37:14;;;;;;;;;;;;;;;18.06;59.83;101817.28;5109987;27;1347;-63
2021/03/16 09:39:51;;;;;;;;;;;;;;;18.11;62.98;101808.31;5128465;27;1054;-63
2021/03/16 09:42:17;;;;;;;;;;;;;;;18.13;63.31;101808.22;5110099;27;1208;-65
2021/03/16 09:44:45;;;;;;;;;;;;;;;18.13;63.01;101805.59;5128157;27;1092;-64
2021/03/16 09:47:23;;;;;;;;;;;;;;;18.06;61.89;101810.22;5128041;27;1976;-64
2021/03/16 09:49:50;;;;;;;;;;;;;;;18.11;62.18;101803.03;5128277;27;1365;-63
2021/03/16 09:52:16;;;;;;;;;;;;;;;18.09;62.87;101809.28;5128141;27;1249;-62
2021/03/16 09:54:44;;;;;;;;;;;;;;;18.10;63.42;101810.97;5128190;27;1073;-64
2021/03/16 09:57:14;;;;;;;;;;;;;;;18.21;63.57;101808.81;5109695;28;1235;-63
2021/03/16 09:59:41;;;;;;;;;;;;;;;18.18;63.65;101815.03;5092444;28;1192;-64
2021/03/16 10:02:10;;;;;;;;;;;;;;;18.11;63.54;101815.34;5105871;28;1307;-65
2021/03/16 10:04:47;;;;;;;;;;;;;;;18.07;63.13;101811.97;5126496;28;1020;-64
2021/03/16 10:07:30;;;;;;;;;;;;;;;18.06;62.94;101815.50;5109998;28;1910;-66
2021/03/16 10:10:11;;;;;;;;;;;;;;;18.05;63.38;101815.56;5107275;28;1130;-65
2021/03/16 10:12:37;;;;;;;;;;;;;;;18.09;63.66;101815.38;5109667;27;1236;-65
2021/03/16 10:15:05;;;;;;;;;;;;;;;18.15;63.80;101814.31;5113652;27;1352;-65
2021/03/16 10:17:40;;;;;;;;;;;;;;;18.17;62.84;101805.44;5131785;27;1251;-66
2021/03/16 10:20:07;;;;;;;;;;;;;;;18.31;62.40;101797.84;5132326;27;1019;-65
2021/03/16 10:22:36;;;;;;;;;;;;;;;18.26;60.33;101806.84;5131691;27;1309;-64
2021/03/16 10:25:03;;;;;;;;;;;;;;;18.18;61.33;101804.50;5131843;27;1049;-64
2021/03/16 10:27:31;;;;;;;;;;;;;;;18.15;62.14;101798.50;5131429;27;1914;-65
2021/03/16 10:30:01;;;;;;;;;;;;;;;18.14;62.99;101796.78;5132157;27;1057;-64
2021/03/16 10:32:27;;;;;;;;;;;;;;;18.13;61.75;101802.94;5125543;27;1296;-64
2021/03/16 10:35:03;;;;;;;;;;;;;;;18.11;63.56;101791.63;5132435;27;1164;-65
2021/03/16 10:37:29;;;;;;;;;;;;;;;18.11;63.35;101791.63;5105854;27;1946;-65
2021/03/16 10:39:55;;;;;;;;;;;;;;;18.10;63.24;101785.47;5131950;27;1049;-65
2021/03/16 10:42:22;;;;;;;;;;;;;;;18.10;63.11;101790.75;5132054;27;1224;-65
2021/03/16 10:44:48;;;;;;;;;;;;;;;18.12;60.72;101783.63;5131847;27;1059;-66
2021/03/16 10:47:15;;;;;;;;;;;;;;;18.12;61.02;101786.25;5131872;27;1902;-65
2021/03/16 10:49:41;;;;;;;;;;;;;;;18.12;62.52;101786.25;5112606;27;1462;-66
2021/03/16 10:52:07;;;;;;;;;;;;;;;18.11;63.26;101783.69;5131929;27;1246;-65
2021/03/16 10:54:35;;;;;;;;;;;;;;;18.13;63.40;101787.13;5131356;27;1197;-66
2021/03/16 10:57:02;;;;;;;;;;;;;;;18.12;63.15;101785.44;5131592;27;1327;-65
2021/03/16 10:59:29;;;;;;;;;;;;;;;18.12;62.93;101788.06;5131152;27;1136;-63
2021/03/16 11:01:55;;;;;;;;;;;;;;;18.12;61.11;101788.91;5112871;27;1236;-64
2021/03/16 11:04:22;;;;;;;;;;;;;;;18.12;62.46;101788.06;5131207;27;1328;-65
2021/03/16 11:06:48;;;;;;;;;;;;;;;18.12;62.38;101788.06;5131427;27;1975;-65
2021/03/16 11:09:15;;;;;;;;;;;;;;;18.13;62.99;101785.34;5115531;27;1738;-64
2021/03/16 11:11:45;;;;;;;;;;;;;;;18.14;63.12;101775.66;5110767;28;1238;-65
2021/03/16 11:14:11;;;;;;;;;;;;;;;18.15;62.95;101777.41;5110328;28;1040;-63
2021/03/16 11:16:37;;;;;;;;;;;;;;;18.14;62.86;101765.13;5110842;28;1204;-64
2021/03/16 11:19:04;;;;;;;;;;;;;;;18.14;62.97;101771.25;5110358;28;1115;-64
2021/03/16 11:21:30;;;;;;;;;;;;;;;18.21;62.33;101772.72;5110483;28;1184;-64
2021/03/16 11:23:59;;;;;;;;;;;;;;;18.21;61.87;101785.06;5110068;28;1071;-64
2021/03/16 11:26:26;;;;;;;;;;;;;;;18.21;62.50;101782.44;5090508;28;1988;-63
2021/03/16 11:28:52;;;;;;;;;;;;;;;18.20;62.57;101785.97;5091601;28;1770;-66
2021/03/16 11:31:19;;;;;;;;;;;;;;;18.20;62.67;101786.84;5110592;28;1224;-65
2021/03/16 11:33:52;;;;;;;;;;;;;;;18.35;61.06;101793.31;5110163;28;938;-65
2021/03/16 11:36:19;;;;;;;;;;;;;;;18.44;61.89;101795.59;5111431;27;1283;-65
2021/03/16 11:38:46;;;;;;;;;;;;;;;18.40;62.04;101791.34;5109640;28;1027;-65
2021/03/16 11:41:12;;;;;;;;;;;;;;;18.38;62.03;101785.28;5121618;27;1303;-65
2021/03/16 11:43:38;;;;;;;;;;;;;;;18.48;60.90;101784.00;5117723;27;1162;-66
2021/03/16 11:46:04;;;;;;;;;;;;;;;18.53;60.91;101787.34;5120498;27;1918;-65
2021/03/16 11:48:31;;;;;;;;;;;;;;;18.46;62.01;101789.31;5130934;27;1418;-66
2021/03/16 11:50:57;;;;;;;;;;;;;;;18.41;62.17;101791.28;5130596;27;1991;-67
2021/03/16 11:53:24;;;;;;;;;;;;;;;18.40;62.17;101780.78;5130600;27;1114;-67
2021/03/16 11:55:50;;;;;;;;;;;;;;;18.40;62.47;101783.44;5130172;27;1318;-66
2021/03/16 11:58:16;;;;;;;;;;;;;;;18.38;62.35;101791.41;5130204;27;1647;-66
2021/03/16 12:00:43;;;;;;;;;;;;;;;18.40;62.37;101799.25;5129741;27;1390;-65
2021/03/16 12:03:10;;;;;;;;;;;;;;;18.40;62.24;101797.47;5130106;27;996;-65
2021/03/16 12:05:36;;;;;;;;;;;;;;;18.41;62.25;101798.34;5129507;27;1989;-65
2021/03/16 12:08:04;;;;;;;;;;;;;;;18.40;62.35;101791.34;5124780;27;1781;-67
2021/03/16 12:10:30;;;;;;;;;;;;;;;18.40;62.56;101781.66;5109428;28;1308;-65
2021/03/16 12:12:57;;;;;;;;;;;;;;;18.42;62.36;101763.13;5109251;28;912;-65
2021/03/16 12:15:23;;;;;;;;;;;;;;;18.41;62.39;101758.78;5110503;27;1271;-65
2021/03/16 12:17:49;;;;;;;;;;;;;;;18.44;62.31;101769.19;5109211;28;1090;-66
2021/03/16 12:20:16;;;;;;;;;;;;;;;18.44;62.24;101759.50;5113677;27;1247;-65
2021/03/16 12:22:47;;;;;;;;;;;;;;;18.50;62.31;101756.66;5111794;27;1201;-65
2021/03/16 12:25:25;;;;;;;;;;;;;;;18.52;61.79;101749.53;5111287;27;1326;-65
2021/03/16 12:28:06;;;;;;;;;;;;;;;18.52;62.38;101746.03;5111092;27;1325;-65
2021/03/16 12:30:36;;;;;;;;;;;;;;;18.50;62.18;101740.84;5129157;27;1385;-65
2021/03/16 12:33:04;;;;;;;;;;;;;;;18.48;62.58;101747.91;5125203;27;918;-64
2021/03/16 12:35:34;;;;;;;;;;;;;;;18.50;62.27;101738.19;5089987;28;1883;-65
2021/03/16 12:38:03;;;;;;;;;;;;;;;18.47;62.16;101732.16;5109127;28;809;-66
2021/03/16 12:40:30;;;;;;;;;;;;;;;18.55;61.41;101735.34;5090413;28;1382;-65
2021/03/16 12:42:56;;;;;;;;;;;;;;;18.62;60.68;101734.19;5108897;28;845;-65
2021/03/16 12:45:23;;;;;;;;;;;;;;;18.59;61.48;101731.69;5094871;27;1318;-63
2021/03/16 12:47:51;;;;;;;;;;;;;;;18.62;60.81;101731.56;5110967;27;1898;-65
2021/03/16 12:50:18;;;;;;;;;;;;;;;18.65;60.95;101730.56;5110801;27;1531;-65
2021/03/16 12:52:46;;;;;;;;;;;;;;;18.55;61.41;101719.53;5110701;27;1335;-66